createdAt,value
2023-05-11T00:01:36.397Z,37.50
2023-05-11T00:04:03.220Z,42.90
2023-05-11T00:06:30.194Z,55.30
2023-05-11T00:08:57.097Z,64.60
2023-05-11T00:11:23.904Z,72.50
2023-05-11T00:13:50.579Z,64.10
2023-05-11T00:16:17.398Z,59.00
2023-05-11T00:18:44.562Z,65.50
2023-05-11T00:21:11.537Z,55.80
2023-05-11T00:23:38.529Z,66.60
2023-05-11T00:26:05.578Z,64.70
2023-05-11T00:28:32.289Z,65.10
2023-05-11T00:30:59.316Z,58.10
2023-05-11T00:33:26.343Z,50.20
2023-05-11T00:35:53.224Z,60.00
2023-05-11T00:38:19.977Z,59.30
2023-05-11T00:40:48.492Z,60.10
2023-05-11T00:43:15.801Z,55.90
2023-05-11T00:45:43.872Z,51.20
2023-05-11T00:48:10.773Z,58.90
2023-05-11T00:50:37.616Z,51.90
2023-05-11T00:53:04.404Z,49.90
2023-05-11T00:55:31.630Z,43.30
2023-05-11T00:57:58.430Z,42.80
2023-05-11T01:00:25.381Z,44.60
2023-05-11T01:02:52.643Z,43.40
2023-05-11T01:05:19.982Z,49.60
2023-05-11T01:07:53.186Z,53.20
2023-05-11T01:10:37.222Z,60.00
2023-05-11T01:13:31.569Z,55.30
2023-05-11T01:15:58.593Z,44.90
2023-05-11T01:18:39.948Z,53.70
2023-05-11T01:21:10.569Z,42.40
2023-05-11T01:23:40.575Z,46.50
2023-05-11T01:26:16.805Z,51.00
2023-05-11T01:29:02.898Z,57.40
2023-05-11T01:31:33.546Z,55.40
2023-05-11T01:34:05.849Z,58.70
2023-05-11T01:36:34.412Z,59.80
2023-05-11T01:39:03.205Z,61.30
2023-05-11T01:41:31.436Z,52.30
2023-05-11T01:44:00.242Z,46.40
2023-05-11T01:46:27.810Z,46.10
2023-05-11T01:48:56.311Z,46.10
2023-05-11T01:51:28.698Z,49.20
2023-05-11T01:53:56.035Z,45.30
2023-05-11T01:56:23.112Z,42.90
2023-05-11T01:58:49.877Z,47.70
2023-05-11T02:01:17.935Z,41.50
2023-05-11T02:03:44.769Z,40.60
2023-05-11T02:06:11.632Z,38.60
2023-05-11T02:08:39.210Z,38.60
2023-05-11T02:11:06.094Z,33.60
2023-05-11T02:13:34.142Z,32.70
2023-05-11T02:16:00.973Z,32.40
2023-05-11T02:18:27.990Z,35.90
2023-05-11T02:20:58.982Z,36.10
2023-05-11T02:23:27.117Z,38.20
2023-05-11T02:25:54.195Z,40.40
2023-05-11T02:28:21.660Z,35.00
2023-05-11T02:30:50.207Z,36.70
2023-05-11T02:33:22.095Z,39.50
2023-05-11T02:35:49.045Z,33.40
2023-05-11T02:38:16.496Z,34.10
2023-05-11T02:40:47.812Z,36.10
2023-05-11T02:43:21.569Z,37.40
2023-05-11T02:45:53.788Z,38.50
2023-05-11T02:48:26.275Z,32.30
2023-05-11T02:50:54.536Z,30.40
2023-05-11T02:53:23.639Z,34.40
2023-05-11T02:55:50.705Z,34.20
2023-05-11T02:58:18.092Z,32.40
2023-05-11T03:00:47.285Z,34.90
2023-05-11T03:03:14.624Z,36.40
2023-05-11T03:05:41.556Z,36.50
2023-05-11T03:08:08.711Z,35.90
2023-05-11T03:10:36.678Z,39.60
2023-05-11T03:13:03.510Z,43.00
2023-05-11T03:15:30.642Z,40.70
2023-05-11T03:17:58.567Z,38.70
2023-05-11T03:20:25.473Z,42.50
2023-05-11T03:22:52.355Z,37.80
2023-05-11T03:25:19.297Z,38.00
2023-05-11T03:27:46.499Z,37.60
2023-05-11T03:30:14.224Z,38.20
2023-05-11T03:32:44.012Z,37.80
2023-05-11T03:35:10.937Z,41.50
2023-05-11T03:37:38.065Z,38.40
2023-05-11T03:40:06.059Z,40.30
2023-05-11T03:42:38.675Z,41.80
2023-05-11T03:45:06.561Z,38.60
2023-05-11T03:47:33.987Z,32.60
2023-05-11T03:50:01.298Z,30.20
2023-05-11T03:52:28.921Z,31.50
2023-05-11T03:54:56.111Z,35.10
2023-05-11T03:57:25.414Z,35.30
2023-05-11T03:59:52.239Z,26.70
2023-05-11T04:02:19.295Z,28.00
2023-05-11T04:04:46.187Z,28.40
2023-05-11T04:07:13.096Z,27.40
2023-05-11T04:09:39.869Z,27.40
2023-05-11T04:12:07.473Z,26.70
2023-05-11T04:14:34.472Z,27.80
2023-05-11T04:17:01.243Z,24.70
2023-05-11T04:19:28.529Z,27.60
2023-05-11T04:21:55.235Z,25.50
2023-05-11T04:24:22.012Z,25.50
2023-05-11T04:26:48.738Z,22.00
2023-05-11T04:29:15.446Z,13.20
2023-05-11T04:31:42.167Z,11.60
2023-05-11T04:34:08.996Z,10.80
2023-05-11T04:36:36.835Z,13.90
2023-05-11T04:39:04.245Z,10.80
2023-05-11T04:41:32.522Z,11.10
2023-05-11T04:44:01.043Z,10.50
2023-05-11T04:46:28.815Z,10.90
2023-05-11T04:48:56.061Z,10.40
2023-05-11T04:51:23.214Z,11.70
2023-05-11T04:53:50.491Z,13.00
2023-05-11T04:56:20.734Z,12.30
2023-05-11T04:58:48.840Z,11.60
2023-05-11T05:01:15.639Z,11.50
2023-05-11T05:03:42.609Z,11.00
2023-05-11T05:06:09.355Z,10.50
2023-05-11T05:08:37.129Z,10.40
2023-05-11T05:11:04.469Z,11.70
2023-05-11T05:13:31.236Z,10.30
2023-05-11T05:15:58.046Z,12.60
2023-05-11T05:18:24.970Z,12.10
2023-05-11T05:20:51.871Z,10.20
2023-05-11T05:23:18.835Z,10.10
2023-05-11T05:25:46.001Z,8.60
2023-05-11T05:28:13.050Z,7.80
2023-05-11T05:30:40.598Z,7.90
2023-05-11T05:33:07.626Z,6.80
2023-05-11T05:35:35.323Z,7.10
2023-05-11T05:38:02.094Z,6.60
2023-05-11T05:40:28.968Z,6.80
2023-05-11T05:42:56.305Z,7.00
2023-05-11T05:45:24.112Z,6.50
2023-05-11T05:47:51.844Z,7.50
2023-05-11T05:50:19.608Z,6.00
2023-05-11T05:52:47.645Z,5.40
2023-05-11T05:55:14.568Z,6.90
2023-05-11T05:57:43.043Z,6.00
2023-05-11T06:00:11.120Z,7.10
2023-05-11T06:02:41.634Z,7.60
2023-05-11T06:05:11.173Z,7.50
2023-05-11T06:07:38.741Z,8.00
2023-05-11T06:10:06.172Z,7.40
2023-05-11T06:12:33.782Z,7.10
2023-05-11T06:15:00.897Z,8.50
2023-05-11T06:17:28.797Z,8.90
2023-05-11T06:19:55.645Z,6.80
2023-05-11T06:22:23.764Z,6.90
2023-05-11T06:24:50.957Z,6.20
2023-05-11T06:27:18.693Z,6.10
2023-05-11T06:29:45.768Z,5.10
2023-05-11T06:32:19.006Z,5.00
2023-05-11T06:34:46.637Z,4.70
2023-05-11T06:37:20.302Z,5.50
2023-05-11T06:39:49.070Z,5.50
2023-05-11T06:42:15.941Z,5.00
2023-05-11T06:44:42.859Z,4.80
2023-05-11T06:47:10.701Z,4.20
2023-05-11T06:49:37.704Z,3.90
2023-05-11T06:52:04.498Z,4.30
2023-05-11T06:54:31.364Z,4.60
2023-05-11T06:56:58.333Z,4.80
2023-05-11T06:59:26.501Z,4.50
2023-05-11T07:04:19.965Z,3.90
2023-05-11T07:06:46.702Z,4.00
2023-05-11T07:09:13.437Z,3.70
2023-05-11T07:11:40.878Z,4.30
2023-05-11T07:14:07.898Z,3.50
2023-05-11T07:16:37.781Z,2.90
2023-05-11T07:19:05.894Z,2.80
2023-05-11T07:21:33.883Z,2.60
2023-05-11T07:24:00.662Z,3.00
2023-05-11T07:26:27.430Z,3.50
2023-05-11T07:28:54.323Z,4.50
2023-05-11T07:31:21.852Z,4.40
2023-05-11T07:33:48.653Z,3.50
2023-05-11T07:36:15.415Z,3.40
2023-05-11T07:38:42.128Z,2.60
2023-05-11T07:41:10.796Z,2.70
2023-05-11T07:43:39.292Z,3.00
2023-05-11T07:46:06.746Z,3.10
2023-05-11T07:48:33.523Z,3.50
2023-05-11T07:51:01.097Z,3.00
2023-05-11T07:53:28.329Z,3.30
2023-05-11T07:55:55.576Z,3.10
2023-05-11T07:58:22.574Z,3.70
2023-05-11T08:00:49.302Z,3.30
2023-05-11T08:03:16.284Z,3.30
2023-05-11T08:05:43.144Z,3.30
2023-05-11T08:08:10.077Z,4.00
2023-05-11T08:10:37.041Z,3.70
2023-05-11T08:13:03.753Z,3.40
2023-05-11T08:15:30.500Z,3.40
2023-05-11T08:17:57.337Z,3.90
2023-05-11T08:20:24.254Z,3.40
2023-05-11T08:22:51.106Z,3.40
2023-05-11T08:25:18.264Z,3.40
2023-05-11T08:27:45.305Z,3.20
2023-05-11T08:30:12.642Z,4.00
2023-05-11T08:32:57.222Z,3.60
2023-05-11T08:35:25.212Z,3.60
2023-05-11T08:37:51.916Z,3.90
2023-05-11T08:40:18.956Z,3.40
2023-05-11T08:42:45.780Z,4.10
2023-05-11T08:45:13.043Z,6.80
2023-05-11T08:47:40.230Z,3.70
2023-05-11T08:50:07.232Z,3.00
2023-05-11T08:52:34.333Z,3.30
2023-05-11T08:55:01.168Z,3.00
2023-05-11T08:57:28.939Z,3.40
2023-05-11T08:59:55.713Z,3.50
2023-05-11T09:02:22.543Z,3.40
2023-05-11T09:04:49.444Z,3.40
2023-05-11T09:07:19.136Z,3.10
2023-05-11T09:09:46.662Z,3.40
2023-05-11T09:12:13.697Z,4.10
2023-05-11T09:14:40.581Z,4.20
2023-05-11T09:17:07.693Z,3.20
2023-05-11T09:19:34.658Z,3.80
2023-05-11T09:22:01.376Z,3.20
2023-05-11T09:24:28.123Z,4.20
2023-05-11T09:29:51.952Z,3.50
2023-05-11T09:32:19.024Z,3.60
2023-05-11T09:34:46.199Z,3.50
2023-05-11T09:37:17.419Z,3.10
2023-05-11T09:42:20.901Z,2.90
2023-05-11T09:47:16.840Z,2.90
2023-05-11T09:49:44.419Z,3.60
2023-05-11T09:52:15.089Z,4.00
2023-05-11T09:54:43.504Z,4.40
2023-05-11T09:57:21.926Z,3.70
2023-05-11T09:59:49.369Z,3.10
2023-05-11T10:02:23.132Z,3.70
2023-05-11T10:04:50.718Z,3.60
2023-05-11T10:07:33.858Z,3.70
2023-05-11T10:10:01.461Z,3.50
2023-05-11T10:12:28.734Z,3.50
2023-05-11T10:14:59.212Z,2.70
2023-05-11T10:17:26.048Z,3.00
2023-05-11T10:19:54.451Z,3.00
2023-05-11T10:22:21.203Z,3.10
2023-05-11T10:24:48.032Z,3.30
2023-05-11T10:27:14.854Z,4.00
2023-05-11T10:29:41.893Z,3.60
2023-05-11T10:32:09.001Z,3.50
2023-05-11T10:34:36.171Z,3.80
2023-05-11T10:37:02.985Z,4.00
2023-05-11T10:39:29.727Z,3.50
2023-05-11T10:42:29.148Z,4.30
2023-05-11T10:45:33.589Z,3.10
2023-05-11T10:48:25.640Z,3.60
2023-05-11T10:51:33.279Z,3.50
2023-05-11T10:54:06.898Z,2.60
2023-05-11T10:56:43.878Z,7.90
2023-05-11T10:59:33.861Z,3.10
2023-05-11T11:02:02.065Z,8.70
2023-05-11T11:04:46.324Z,4.10
2023-05-11T11:07:17.642Z,3.00
2023-05-11T11:09:51.970Z,2.80
2023-05-11T11:12:20.005Z,2.90
2023-05-11T11:15:00.645Z,3.60
2023-05-11T11:17:31.722Z,3.50
2023-05-11T11:20:00.738Z,3.10
2023-05-11T11:22:40.891Z,3.70
2023-05-11T11:25:08.544Z,3.10
2023-05-11T11:27:41.312Z,2.90
2023-05-11T11:30:28.537Z,3.10
2023-05-11T11:33:07.308Z,2.90
2023-05-11T11:35:40.174Z,3.10
2023-05-11T11:38:11.666Z,2.90
2023-05-11T11:40:50.083Z,3.30
2023-05-11T11:43:27.821Z,3.20
2023-05-11T11:45:55.794Z,3.20
2023-05-11T11:51:08.483Z,3.10
2023-05-11T11:53:35.958Z,3.00
2023-05-11T11:56:03.770Z,3.30
2023-05-11T12:01:14.386Z,3.10
2023-05-11T12:03:45.692Z,3.40
2023-05-11T12:06:12.844Z,3.30
2023-05-11T12:08:40.426Z,4.40
2023-05-11T12:11:07.546Z,3.70
2023-05-11T12:13:34.939Z,3.60
2023-05-11T12:16:11.938Z,3.90
2023-05-11T12:18:39.841Z,2.70
2023-05-11T12:21:07.199Z,4.10
2023-05-11T12:23:36.026Z,3.30
2023-05-11T12:26:04.094Z,2.90
2023-05-11T12:28:32.193Z,2.90
2023-05-11T12:31:00.608Z,2.90
2023-05-11T12:33:30.440Z,2.80
2023-05-11T12:35:57.378Z,3.30
2023-05-11T12:38:24.140Z,2.70
2023-05-11T12:40:52.264Z,2.80
2023-05-11T12:43:20.362Z,3.40
2023-05-11T12:45:48.847Z,3.20
2023-05-11T12:48:16.070Z,2.50
2023-05-11T12:50:44.373Z,3.10
2023-05-11T12:53:15.347Z,3.10
2023-05-11T12:55:42.227Z,2.40
2023-05-11T12:58:11.607Z,2.50
2023-05-11T13:00:54.433Z,3.00
2023-05-11T13:03:25.357Z,2.70
2023-05-11T13:06:03.712Z,3.10
2023-05-11T13:08:30.969Z,2.60
2023-05-11T13:11:21.713Z,5.30
2023-05-11T13:13:49.150Z,4.70
2023-05-11T13:16:29.506Z,21.60
2023-05-11T13:19:01.002Z,6.50
2023-05-11T13:21:29.150Z,2.70
2023-05-11T13:23:56.196Z,2.90
2023-05-11T13:26:28.210Z,3.10
2023-05-11T13:29:08.688Z,4.50
2023-05-11T13:31:45.311Z,3.60
2023-05-11T13:34:12.140Z,3.00
2023-05-11T13:36:39.410Z,3.10
2023-05-11T13:39:06.617Z,3.80
2023-05-11T13:41:34.283Z,2.70
2023-05-11T13:44:01.131Z,2.70
2023-05-11T13:46:28.444Z,2.70
2023-05-11T13:48:55.536Z,2.80
2023-05-11T13:51:22.477Z,2.80
2023-05-11T13:53:49.386Z,2.00
2023-05-11T13:56:18.830Z,2.50
2023-05-11T13:58:45.722Z,3.60
2023-05-11T14:01:12.602Z,3.00
2023-05-11T14:03:39.455Z,2.60
2023-05-11T14:06:06.826Z,3.40
2023-05-11T14:08:33.903Z,2.60
2023-05-11T14:11:01.131Z,2.90
2023-05-11T14:13:28.204Z,2.90
2023-05-11T14:15:55.495Z,2.50
2023-05-11T14:18:24.258Z,3.50
2023-05-11T14:20:51.640Z,1.90
2023-05-11T14:23:18.380Z,2.50
2023-05-11T14:25:46.648Z,2.30
2023-05-11T14:28:13.443Z,2.20
2023-05-11T14:30:40.503Z,1.90
2023-05-11T14:33:07.363Z,2.40
2023-05-11T14:35:34.316Z,2.30
2023-05-11T14:38:02.351Z,2.10
2023-05-11T14:40:29.565Z,2.50
2023-05-11T14:42:56.297Z,2.80
2023-05-11T14:45:23.089Z,2.60
2023-05-11T14:47:50.374Z,2.20
2023-05-11T14:50:17.418Z,2.40
2023-05-11T14:52:46.435Z,2.90
2023-05-11T14:55:13.242Z,2.50
2023-05-11T14:57:40.135Z,2.70
2023-05-11T15:00:08.240Z,2.70
2023-05-11T15:05:02.311Z,2.60
2023-05-11T15:07:29.383Z,2.70
2023-05-11T15:09:56.307Z,10.20
2023-05-11T15:12:23.653Z,3.00
2023-05-11T15:14:51.301Z,2.80
2023-05-11T15:17:18.077Z,2.40
2023-05-11T15:19:44.876Z,2.40
2023-05-11T15:22:13.340Z,2.90
2023-05-11T15:24:40.634Z,3.70
2023-05-11T15:27:07.407Z,2.50
2023-05-11T15:29:34.445Z,2.70
2023-05-11T15:32:01.324Z,3.10
2023-05-11T15:34:29.403Z,2.30
2023-05-11T15:36:58.113Z,2.80
2023-05-11T15:39:25.356Z,3.10
2023-05-11T15:41:52.292Z,3.20
2023-05-11T15:44:19.302Z,3.00
2023-05-11T15:46:46.817Z,2.70
2023-05-11T15:49:15.301Z,2.70
2023-05-11T15:51:42.056Z,2.90
2023-05-11T15:54:08.788Z,2.70
2023-05-11T15:56:35.909Z,2.90
2023-05-11T15:59:03.592Z,3.60
2023-05-11T16:01:30.509Z,2.50
2023-05-11T16:03:57.410Z,2.80
2023-05-11T16:06:24.515Z,3.10
2023-05-11T16:08:52.608Z,3.00
2023-05-11T16:11:19.467Z,3.00
2023-05-11T16:13:46.183Z,2.70
2023-05-11T16:16:13.367Z,2.90
2023-05-11T16:18:40.362Z,3.00
2023-05-11T16:21:07.813Z,4.70
2023-05-11T16:23:41.441Z,3.60
2023-05-11T16:26:08.428Z,4.40
2023-05-11T16:28:35.726Z,7.20
2023-05-11T16:31:02.685Z,8.80
2023-05-11T16:33:29.492Z,8.10
2023-05-11T16:35:56.477Z,4.70
2023-05-11T16:38:23.318Z,9.60
2023-05-11T16:40:50.310Z,4.60
2023-05-11T16:43:17.020Z,10.50
2023-05-11T16:45:43.965Z,4.20
2023-05-11T16:50:38.932Z,7.60
2023-05-11T16:53:06.021Z,5.30
2023-05-11T16:55:34.718Z,4.70
2023-05-11T16:58:01.739Z,3.50
2023-05-11T17:00:29.014Z,4.20
2023-05-11T17:02:56.064Z,4.40
2023-05-11T17:05:23.627Z,4.90
2023-05-11T17:07:50.529Z,13.30
2023-05-11T17:10:17.706Z,8.70
2023-05-11T17:12:45.110Z,7.60
2023-05-11T17:15:12.187Z,6.50
2023-05-11T17:17:40.591Z,6.40
2023-05-11T17:20:09.659Z,8.50
2023-05-11T17:22:37.321Z,5.40
2023-05-11T17:25:05.703Z,4.70
2023-05-11T17:29:59.544Z,4.30
2023-05-11T17:32:26.477Z,4.00
2023-05-11T17:34:53.533Z,4.00
2023-05-11T17:37:31.095Z,4.60
2023-05-11T17:40:02.625Z,4.80
2023-05-11T17:42:30.195Z,5.90
2023-05-11T17:44:57.320Z,5.50
2023-05-11T17:47:24.165Z,5.00
2023-05-11T17:49:50.969Z,4.80
2023-05-11T17:52:17.866Z,5.10
2023-05-11T17:54:44.817Z,5.10
2023-05-11T17:57:11.657Z,4.40
2023-05-11T17:59:38.507Z,5.90
2023-05-11T18:02:05.373Z,7.20
2023-05-11T18:04:35.694Z,6.30
2023-05-11T18:07:03.431Z,6.10
2023-05-11T18:09:30.435Z,6.20
2023-05-11T18:11:57.608Z,4.90
2023-05-11T18:14:27.191Z,5.80
2023-05-11T18:16:53.979Z,7.80
2023-05-11T18:19:21.522Z,7.70
2023-05-11T18:21:49.263Z,7.00
2023-05-11T18:26:44.574Z,6.80
2023-05-11T18:29:11.264Z,6.30
2023-05-11T18:31:38.111Z,7.40
2023-05-11T18:34:05.305Z,7.40
2023-05-11T18:36:32.608Z,6.00
2023-05-11T18:38:59.614Z,5.70
2023-05-11T18:41:27.402Z,6.20
2023-05-11T18:43:54.167Z,13.40
2023-05-11T18:46:21.282Z,11.00
2023-05-11T18:48:49.985Z,10.00
2023-05-11T18:51:19.395Z,45.10
2023-05-11T18:53:46.135Z,14.80
2023-05-11T18:56:12.952Z,10.20
2023-05-11T18:58:39.694Z,8.50
2023-05-11T19:01:07.104Z,10.40
2023-05-11T19:03:35.598Z,8.60
2023-05-11T19:06:02.606Z,7.90
2023-05-11T19:08:29.885Z,10.40
2023-05-11T19:11:04.249Z,9.90
2023-05-11T19:13:31.404Z,10.80
2023-05-11T19:15:58.133Z,12.40
2023-05-11T19:18:26.537Z,12.70
2023-05-11T19:20:53.422Z,12.00
2023-05-11T19:23:20.755Z,10.10
2023-05-11T19:25:47.514Z,12.40
2023-05-11T19:28:14.676Z,13.70
2023-05-11T19:30:41.491Z,7.10
2023-05-11T19:33:08.732Z,9.40
2023-05-11T19:35:35.537Z,34.00
2023-05-11T19:38:02.663Z,35.90
2023-05-11T19:43:00.435Z,43.50
2023-05-11T19:45:33.423Z,50.70
2023-05-11T19:48:00.334Z,38.20
2023-05-11T19:50:27.436Z,51.70
2023-05-11T19:52:54.743Z,44.50
2023-05-11T19:55:23.885Z,65.20
2023-05-11T19:57:51.228Z,70.40
2023-05-11T20:00:19.039Z,70.50
2023-05-11T20:02:46.398Z,60.60
2023-05-11T20:05:13.386Z,53.80
2023-05-11T20:10:10.054Z,52.50
2023-05-11T20:12:37.968Z,52.70
2023-05-11T20:15:06.736Z,49.20
2023-05-11T20:17:35.110Z,40.50
2023-05-11T20:20:02.164Z,32.00
2023-05-11T20:22:30.688Z,41.70
2023-05-11T20:27:24.857Z,27.10
2023-05-11T20:29:52.119Z,31.40
2023-05-11T20:32:18.889Z,32.30
2023-05-11T20:34:45.726Z,34.10
2023-05-11T20:37:13.588Z,37.40
2023-05-11T20:39:40.362Z,29.90
2023-05-11T20:42:08.092Z,24.20
2023-05-11T20:44:35.066Z,21.90
2023-05-11T20:47:01.926Z,18.20
2023-05-11T20:49:38.161Z,19.90
2023-05-11T20:52:07.103Z,25.60
2023-05-11T20:54:34.301Z,20.80
2023-05-11T20:57:04.638Z,24.90
2023-05-11T21:02:02.049Z,24.00
2023-05-11T21:04:30.758Z,22.50
2023-05-11T21:06:57.821Z,18.20
2023-05-11T21:09:24.843Z,18.10
2023-05-11T21:11:51.832Z,15.50
2023-05-11T21:14:18.597Z,19.30
2023-05-11T21:16:45.508Z,23.60
2023-05-11T21:19:12.357Z,19.90
2023-05-11T21:21:39.127Z,23.40
2023-05-11T21:24:06.226Z,21.00
2023-05-11T21:26:33.508Z,19.50
2023-05-11T21:29:00.234Z,17.80
2023-05-11T21:31:27.017Z,14.30
2023-05-11T21:33:53.820Z,14.80
2023-05-11T21:36:21.663Z,20.80
2023-05-11T21:38:48.495Z,18.20
2023-05-11T21:41:16.230Z,21.20
2023-05-11T21:43:42.958Z,18.20
2023-05-11T21:46:09.923Z,16.80
2023-05-11T21:48:36.703Z,11.80
2023-05-11T21:51:03.642Z,11.50
2023-05-11T21:53:30.588Z,11.00
2023-05-11T21:55:57.458Z,10.80
2023-05-11T21:58:24.220Z,13.30
2023-05-11T22:00:51.882Z,21.70
2023-05-11T22:03:18.952Z,16.10
2023-05-11T22:05:46.454Z,15.30
2023-05-11T22:08:15.262Z,15.80
2023-05-11T22:10:42.664Z,12.10
2023-05-11T22:13:09.394Z,12.20
2023-05-11T22:15:36.673Z,12.50
2023-05-11T22:18:04.440Z,10.80
2023-05-11T22:20:31.544Z,10.40
2023-05-11T22:22:58.603Z,11.40
2023-05-11T22:25:25.352Z,11.10
2023-05-11T22:27:52.112Z,10.90
2023-05-11T22:30:19.557Z,12.20
2023-05-11T22:32:46.720Z,17.20
2023-05-11T22:35:13.528Z,24.00
2023-05-11T22:37:40.260Z,24.00
2023-05-11T22:40:08.280Z,19.50
2023-05-11T22:42:35.219Z,20.30
2023-05-11T22:45:01.936Z,14.40
2023-05-11T22:47:28.992Z,16.70
2023-05-11T22:49:55.889Z,15.50
2023-05-11T22:52:22.620Z,13.10
2023-05-11T22:54:54.577Z,16.20
2023-05-11T22:57:23.400Z,18.00
2023-05-11T22:59:50.226Z,20.30
2023-05-11T23:02:17.086Z,19.90
2023-05-11T23:04:47.941Z,16.30
2023-05-11T23:07:14.634Z,16.90
2023-05-11T23:09:41.363Z,20.30
2023-05-11T23:12:08.167Z,19.90
2023-05-11T23:14:35.416Z,19.90
2023-05-11T23:17:02.228Z,20.80
2023-05-11T23:19:29.458Z,19.10
2023-05-11T23:21:56.308Z,17.30
2023-05-11T23:24:23.053Z,20.90
2023-05-11T23:26:50.118Z,21.70
2023-05-11T23:29:16.922Z,17.10
2023-05-11T23:31:43.727Z,16.90
2023-05-11T23:34:10.449Z,17.60
2023-05-11T23:36:37.583Z,17.70
2023-05-11T23:39:04.831Z,18.20
2023-05-11T23:41:32.098Z,19.60
2023-05-11T23:43:59.948Z,21.40
2023-05-11T23:46:26.686Z,20.20
2023-05-11T23:48:54.050Z,20.00
2023-05-11T23:51:20.947Z,23.00
2023-05-11T23:53:47.715Z,21.80
2023-05-11T23:56:14.588Z,20.60
2023-05-11T23:58:44.917Z,21.40
